createdAt,value
2023-04-24T00:02:25.461Z,9.97
2023-04-24T00:04:52.569Z,10.11
2023-04-24T00:07:21.160Z,9.46
2023-04-24T00:09:48.218Z,9.27
2023-04-24T00:12:43.778Z,9.62
2023-04-24T00:15:30.863Z,9.57
2023-04-24T00:18:26.942Z,9.02
2023-04-24T00:21:31.675Z,9.48
2023-04-24T00:24:13.837Z,9.35
2023-04-24T00:26:42.790Z,9.41
2023-04-24T00:29:09.901Z,9.85
2023-04-24T00:31:36.763Z,9.88
2023-04-24T00:34:04.569Z,9.82
2023-04-24T00:36:31.953Z,9.66
2023-04-24T00:38:58.733Z,9.19
2023-04-24T00:41:28.773Z,9.51
2023-04-24T00:43:56.068Z,9.45
2023-04-24T00:46:23.058Z,9.08
2023-04-24T00:48:50.401Z,9.25
2023-04-24T00:51:17.174Z,9.21
2023-04-24T00:53:44.022Z,9.24
2023-04-24T00:56:11.262Z,9.27
2023-04-24T00:58:38.277Z,9.28
2023-04-24T01:01:08.093Z,9.19
2023-04-24T01:03:38.320Z,8.66
2023-04-24T01:06:06.768Z,9.23
2023-04-24T01:08:35.871Z,8.77
2023-04-24T01:11:04.959Z,8.85
2023-04-24T01:13:33.217Z,9.11
2023-04-24T01:16:00.541Z,9.03
2023-04-24T01:18:28.829Z,9.10
2023-04-24T01:20:59.096Z,9.03
2023-04-24T01:23:26.505Z,8.97
2023-04-24T01:25:53.610Z,8.54
2023-04-24T01:28:20.895Z,8.85
2023-04-24T01:30:47.825Z,8.64
2023-04-24T01:33:15.072Z,8.39
2023-04-24T01:35:41.935Z,8.17
2023-04-24T01:38:08.535Z,8.47
2023-04-24T01:40:36.189Z,8.39
2023-04-24T01:43:03.688Z,8.43
2023-04-24T01:45:31.902Z,8.19
2023-04-24T01:47:58.923Z,8.51
2023-04-24T01:50:26.296Z,7.99
2023-04-24T01:52:53.290Z,8.67
2023-04-24T01:55:20.198Z,8.64
2023-04-24T01:57:47.488Z,8.53
2023-04-24T02:00:16.269Z,8.26
2023-04-24T02:02:47.327Z,8.29
2023-04-24T02:05:15.262Z,8.52
2023-04-24T02:07:42.088Z,8.57
2023-04-24T02:10:11.361Z,8.48
2023-04-24T02:12:38.859Z,8.41
2023-04-24T02:15:06.421Z,8.23
2023-04-24T02:17:33.169Z,8.09
2023-04-24T02:19:59.948Z,7.99
2023-04-24T02:22:27.660Z,7.88
2023-04-24T02:24:55.429Z,7.83
2023-04-24T02:27:22.345Z,7.76
2023-04-24T02:29:49.428Z,7.31
2023-04-24T02:32:16.824Z,7.66
2023-04-24T02:34:43.715Z,7.70
2023-04-24T02:37:11.147Z,7.34
2023-04-24T02:39:38.317Z,7.61
2023-04-24T02:42:05.122Z,7.71
2023-04-24T02:44:34.868Z,7.60
2023-04-24T02:47:01.647Z,7.85
2023-04-24T02:49:28.640Z,7.83
2023-04-24T02:51:55.294Z,7.67
2023-04-24T02:54:22.092Z,7.74
2023-04-24T02:56:48.749Z,7.79
2023-04-24T02:59:15.625Z,7.84
2023-04-24T03:01:42.369Z,8.09
2023-04-24T03:04:09.359Z,8.10
2023-04-24T03:06:36.553Z,8.08
2023-04-24T03:09:04.740Z,8.06
2023-04-24T03:11:31.919Z,8.09
2023-04-24T03:14:20.811Z,8.18
2023-04-24T03:20:23.421Z,7.87
2023-04-24T03:22:50.870Z,7.92
2023-04-24T03:25:18.044Z,8.03
2023-04-24T03:27:47.032Z,7.54
2023-04-24T03:30:18.034Z,7.88
2023-04-24T03:32:45.056Z,7.77
2023-04-24T03:35:15.360Z,8.22
2023-04-24T03:37:42.078Z,7.81
2023-04-24T03:40:09.513Z,8.37
2023-04-24T03:42:37.994Z,8.24
2023-04-24T03:45:06.837Z,8.48
2023-04-24T03:47:33.976Z,8.53
2023-04-24T03:50:00.708Z,8.37
2023-04-24T03:52:27.774Z,8.74
2023-04-24T03:54:54.480Z,8.59
2023-04-24T03:57:24.227Z,8.59
2023-04-24T03:59:50.905Z,8.60
2023-04-24T04:02:49.196Z,8.65
2023-04-24T04:05:16.988Z,9.10
2023-04-24T04:07:49.215Z,8.72
2023-04-24T04:10:21.078Z,9.24
2023-04-24T04:12:48.010Z,9.33
2023-04-24T04:15:14.952Z,9.36
2023-04-24T04:17:41.887Z,9.42
2023-04-24T04:20:11.203Z,9.28
2023-04-24T04:22:38.683Z,9.51
2023-04-24T04:25:09.154Z,9.76
2023-04-24T04:27:39.712Z,9.83
2023-04-24T04:30:08.323Z,9.39
2023-04-24T04:32:38.711Z,9.81
2023-04-24T04:35:14.640Z,10.00
2023-04-24T04:37:41.833Z,10.00
2023-04-24T04:40:13.240Z,10.06
2023-04-24T04:42:41.546Z,10.12
2023-04-24T04:45:16.786Z,9.92
2023-04-24T04:47:43.833Z,10.21
2023-04-24T04:50:11.631Z,10.32
2023-04-24T04:52:42.529Z,10.10
2023-04-24T04:55:10.786Z,10.04
2023-04-24T04:57:44.008Z,10.10
2023-04-24T05:00:15.767Z,10.73
2023-04-24T05:02:43.653Z,10.84
2023-04-24T05:05:11.002Z,11.07
2023-04-24T05:07:38.132Z,11.09
2023-04-24T05:10:05.760Z,10.64
2023-04-24T05:12:32.571Z,10.62
2023-04-24T05:14:59.309Z,10.55
2023-04-24T05:17:27.099Z,10.78
2023-04-24T05:19:53.922Z,10.90
2023-04-24T05:22:22.162Z,10.70
2023-04-24T05:24:49.180Z,10.81
2023-04-24T05:27:16.743Z,10.73
2023-04-24T05:29:43.642Z,10.80
2023-04-24T05:32:10.890Z,10.93
2023-04-24T05:34:38.130Z,10.68
2023-04-24T05:37:09.166Z,11.04
2023-04-24T05:39:36.981Z,11.23
2023-04-24T05:42:05.558Z,11.31
2023-04-24T05:44:32.438Z,11.40
2023-04-24T05:46:59.392Z,11.37
2023-04-24T05:49:26.355Z,11.86
2023-04-24T05:51:53.624Z,12.16
2023-04-24T05:54:20.817Z,12.20
2023-04-24T05:56:47.651Z,13.03
2023-04-24T05:59:14.612Z,13.27
2023-04-24T06:01:41.958Z,13.53
2023-04-24T06:04:08.994Z,13.97
2023-04-24T06:06:37.024Z,13.44
2023-04-24T06:09:04.265Z,13.85
2023-04-24T06:11:31.239Z,13.90
2023-04-24T06:13:57.897Z,14.19
2023-04-24T06:16:24.617Z,14.54
2023-04-24T06:18:51.929Z,14.56
2023-04-24T06:21:19.165Z,14.28
2023-04-24T06:23:47.530Z,14.21
2023-04-24T06:26:14.509Z,14.03
2023-04-24T06:28:41.233Z,14.05
2023-04-24T06:31:08.235Z,13.98
2023-04-24T06:33:35.088Z,13.82
2023-04-24T06:36:02.661Z,13.95
2023-04-24T06:38:30.893Z,13.60
2023-04-24T06:40:57.656Z,14.04
2023-04-24T06:43:24.584Z,14.58
2023-04-24T06:45:51.676Z,14.97
2023-04-24T06:48:18.632Z,14.49
2023-04-24T06:50:45.304Z,14.39
2023-04-24T06:53:13.823Z,14.18
2023-04-24T06:55:40.544Z,14.59
2023-04-24T06:58:07.535Z,14.93
2023-04-24T07:00:34.289Z,15.28
2023-04-24T07:03:02.102Z,15.15
2023-04-24T07:05:29.313Z,14.87
2023-04-24T07:07:56.248Z,14.95
2023-04-24T07:10:23.034Z,14.66
2023-04-24T07:12:50.237Z,14.98
2023-04-24T07:15:17.395Z,14.81
2023-04-24T07:17:45.449Z,14.65
2023-04-24T07:20:12.933Z,14.78
2023-04-24T07:22:40.043Z,14.95
2023-04-24T07:25:07.524Z,15.34
2023-04-24T07:27:35.199Z,15.06
2023-04-24T07:30:04.598Z,15.34
2023-04-24T07:32:31.779Z,15.71
2023-04-24T07:34:58.500Z,15.61
2023-04-24T07:37:25.450Z,15.39
2023-04-24T07:39:52.485Z,14.81
2023-04-24T07:42:19.956Z,15.26
2023-04-24T07:44:48.619Z,15.31
2023-04-24T07:47:16.984Z,15.47
2023-04-24T07:49:44.305Z,15.57
2023-04-24T07:52:11.441Z,15.85
2023-04-24T07:54:38.578Z,16.03
2023-04-24T07:57:06.495Z,16.45
2023-04-24T07:59:33.405Z,16.65
2023-04-24T08:02:01.942Z,16.57
2023-04-24T08:04:29.169Z,16.69
2023-04-24T08:06:56.303Z,16.21
2023-04-24T08:09:23.776Z,16.50
2023-04-24T08:11:51.877Z,16.50
2023-04-24T08:14:18.782Z,16.17
2023-04-24T08:16:46.769Z,16.32
2023-04-24T08:19:13.663Z,16.46
2023-04-24T08:21:41.307Z,16.85
2023-04-24T08:24:09.323Z,16.93
2023-04-24T08:26:36.463Z,16.66
2023-04-24T08:29:03.581Z,16.88
2023-04-24T08:31:31.137Z,16.44
2023-04-24T08:33:57.960Z,16.38
2023-04-24T08:36:33.030Z,16.42
2023-04-24T08:39:10.025Z,16.60
2023-04-24T08:41:38.964Z,17.19
2023-04-24T08:44:06.547Z,17.36
2023-04-24T08:46:34.801Z,17.06
2023-04-24T08:49:02.185Z,16.78
2023-04-24T08:51:31.576Z,17.18
2023-04-24T08:53:58.948Z,17.60
2023-04-24T08:56:26.091Z,17.40
2023-04-24T08:58:55.076Z,17.30
2023-04-24T09:01:22.226Z,17.31
2023-04-24T09:03:54.529Z,17.60
2023-04-24T09:06:22.985Z,17.57
2023-04-24T09:08:52.309Z,17.77
2023-04-24T09:11:19.321Z,17.69
2023-04-24T09:13:46.818Z,17.96
2023-04-24T09:16:15.529Z,17.60
2023-04-24T09:18:42.510Z,17.42
2023-04-24T09:21:10.561Z,17.77
2023-04-24T09:23:37.449Z,17.87
2023-04-24T09:26:07.963Z,18.07
2023-04-24T09:28:40.813Z,17.82
2023-04-24T09:31:15.863Z,18.08
2023-04-24T09:34:01.574Z,17.96
2023-04-24T09:36:39.543Z,18.39
2023-04-24T09:39:17.048Z,18.14
2023-04-24T09:41:50.982Z,18.70
2023-04-24T09:44:22.926Z,19.07
2023-04-24T09:46:54.190Z,19.09
2023-04-24T09:49:31.182Z,19.11
2023-04-24T09:52:09.376Z,18.46
2023-04-24T09:54:38.288Z,19.13
2023-04-24T09:57:05.660Z,19.13
2023-04-24T09:59:32.479Z,19.12
2023-04-24T10:02:00.727Z,19.38
2023-04-24T10:04:29.343Z,19.51
2023-04-24T10:06:57.846Z,19.84
2023-04-24T10:09:27.602Z,20.27
2023-04-24T10:11:55.956Z,20.70
2023-04-24T10:14:26.868Z,20.82
2023-04-24T10:16:55.765Z,20.59
2023-04-24T10:19:23.976Z,20.19
2023-04-24T10:21:51.156Z,20.32
2023-04-24T10:24:19.514Z,20.12
2023-04-24T10:26:49.079Z,20.20
2023-04-24T10:29:17.704Z,20.59
2023-04-24T10:31:48.183Z,20.50
2023-04-24T10:34:18.797Z,20.11
2023-04-24T10:36:57.782Z,20.00
2023-04-24T10:39:27.880Z,20.22
2023-04-24T10:41:58.602Z,20.39
2023-04-24T10:44:25.850Z,20.29
2023-04-24T10:46:57.155Z,20.26
2023-04-24T10:49:32.062Z,20.31
2023-04-24T10:52:06.615Z,20.25
2023-04-24T10:54:43.105Z,20.22
2023-04-24T10:57:22.962Z,19.79
2023-04-24T10:59:51.866Z,19.86
2023-04-24T11:02:19.937Z,19.72
2023-04-24T11:04:47.625Z,19.88
2023-04-24T11:07:14.687Z,19.89
2023-04-24T11:09:44.223Z,20.05
2023-04-24T11:12:15.033Z,20.15
2023-04-24T11:14:57.625Z,19.77
2023-04-24T11:17:38.758Z,19.10
2023-04-24T11:22:56.280Z,16.72
2023-04-24T11:25:26.850Z,16.68
2023-04-24T11:28:05.915Z,16.60
2023-04-24T11:30:34.677Z,16.87
2023-04-24T11:33:06.138Z,17.20
2023-04-24T11:35:38.776Z,18.13
2023-04-24T11:40:36.458Z,19.19
2023-04-24T11:43:07.761Z,19.69
2023-04-24T11:45:34.801Z,19.97
2023-04-24T11:48:01.749Z,19.72
2023-04-24T11:50:28.952Z,18.99
2023-04-24T11:52:56.793Z,19.24
2023-04-24T11:55:27.961Z,19.18
2023-04-24T11:57:58.255Z,19.37
2023-04-24T12:00:35.413Z,19.60
2023-04-24T12:03:13.219Z,19.58
2023-04-24T12:05:41.052Z,19.84
2023-04-24T12:08:08.162Z,19.74
2023-04-24T12:10:36.234Z,19.62
2023-04-24T12:13:03.262Z,20.00
2023-04-24T12:15:30.306Z,19.76
2023-04-24T12:17:57.713Z,19.68
2023-04-24T12:20:32.812Z,19.33
2023-04-24T12:23:01.406Z,19.15
2023-04-24T12:25:33.330Z,19.24
2023-04-24T12:28:06.746Z,19.27
2023-04-24T12:30:36.380Z,19.40
2023-04-24T12:33:04.000Z,19.32
2023-04-24T12:35:32.998Z,19.51
2023-04-24T12:38:11.145Z,19.60
2023-04-24T12:40:42.485Z,19.66
2023-04-24T12:43:20.483Z,19.79
2023-04-24T12:45:49.283Z,19.98
2023-04-24T12:48:16.302Z,20.08
2023-04-24T12:50:46.025Z,20.01
2023-04-24T12:53:14.200Z,20.09
2023-04-24T12:55:41.338Z,20.37
2023-04-24T12:58:08.573Z,20.34
2023-04-24T13:00:35.453Z,20.38
2023-04-24T13:03:02.628Z,20.02
2023-04-24T13:05:29.621Z,19.88
2023-04-24T13:07:56.861Z,19.84
2023-04-24T13:10:23.584Z,20.02
2023-04-24T13:12:50.675Z,20.08
2023-04-24T13:15:17.496Z,20.19
2023-04-24T13:17:44.464Z,20.30
2023-04-24T13:20:11.504Z,20.21
2023-04-24T13:22:38.684Z,20.79
2023-04-24T13:25:07.129Z,21.30
2023-04-24T13:27:33.882Z,21.73
2023-04-24T13:30:00.880Z,22.00
2023-04-24T13:32:28.742Z,22.47
2023-04-24T13:34:55.587Z,22.28
2023-04-24T13:37:23.533Z,21.71
2023-04-24T13:39:50.845Z,21.91
2023-04-24T13:42:19.234Z,22.16
2023-04-24T13:44:46.165Z,22.69
2023-04-24T13:47:13.418Z,22.89
2023-04-24T13:49:40.097Z,22.94
2023-04-24T13:52:06.748Z,23.14
2023-04-24T13:54:33.944Z,22.72
2023-04-24T13:57:01.595Z,22.53
2023-04-24T13:59:28.389Z,22.04
2023-04-24T14:01:55.786Z,22.21
2023-04-24T14:04:22.840Z,22.66
2023-04-24T14:06:49.704Z,22.75
2023-04-24T14:09:16.437Z,22.71
2023-04-24T14:11:43.192Z,22.92
2023-04-24T14:14:09.924Z,23.09
2023-04-24T14:16:36.794Z,22.94
2023-04-24T14:19:03.799Z,22.79
2023-04-24T14:21:31.212Z,22.13
2023-04-24T14:23:57.821Z,21.90
2023-04-24T14:26:25.739Z,21.86
2023-04-24T14:29:00.793Z,21.54
2023-04-24T14:31:34.314Z,21.50
2023-04-24T14:34:01.279Z,21.20
2023-04-24T14:36:31.679Z,20.95
2023-04-24T14:38:58.595Z,20.61
2023-04-24T14:41:25.240Z,20.33
2023-04-24T14:43:52.511Z,19.62
2023-04-24T14:46:19.313Z,19.06
2023-04-24T14:48:46.088Z,18.80
2023-04-24T14:51:13.193Z,18.34
2023-04-24T14:53:39.837Z,18.00
2023-04-24T14:56:06.793Z,17.39
2023-04-24T14:58:33.889Z,17.13
2023-04-24T15:01:00.470Z,16.83
2023-04-24T15:03:28.113Z,16.79
2023-04-24T15:05:55.060Z,16.74
2023-04-24T15:08:21.852Z,16.81
2023-04-24T15:10:49.210Z,16.76
2023-04-24T15:13:15.917Z,16.75
2023-04-24T15:15:42.649Z,16.69
2023-04-24T15:18:12.557Z,16.72
2023-04-24T15:20:42.901Z,16.84
2023-04-24T15:23:10.599Z,16.76
2023-04-24T15:25:38.091Z,16.59
2023-04-24T15:28:05.801Z,16.43
2023-04-24T15:30:32.991Z,16.09
2023-04-24T15:33:01.200Z,15.83
2023-04-24T15:35:27.855Z,15.68
2023-04-24T15:37:54.529Z,15.53
2023-04-24T15:40:21.664Z,15.64
2023-04-24T15:42:49.091Z,15.60
2023-04-24T15:45:16.146Z,15.57
2023-04-24T15:47:42.941Z,15.53
2023-04-24T15:50:12.756Z,15.57
2023-04-24T15:52:40.878Z,15.34
2023-04-24T15:55:07.642Z,15.23
2023-04-24T15:57:34.364Z,15.02
2023-04-24T16:00:01.216Z,14.80
2023-04-24T16:02:28.297Z,14.79
2023-04-24T16:04:55.259Z,14.51
2023-04-24T16:07:22.230Z,14.41
2023-04-24T16:09:51.831Z,14.41
2023-04-24T16:12:19.582Z,14.26
2023-04-24T16:14:46.829Z,14.12
2023-04-24T16:17:14.131Z,13.97
2023-04-24T16:19:41.071Z,13.78
2023-04-24T16:22:08.121Z,13.64
2023-04-24T16:24:35.752Z,13.22
2023-04-24T16:27:03.433Z,13.27
2023-04-24T16:29:31.471Z,13.01
2023-04-24T16:31:58.521Z,13.07
2023-04-24T16:34:25.639Z,13.11
2023-04-24T16:36:52.711Z,13.01
2023-04-24T16:39:19.754Z,12.95
2023-04-24T16:41:46.713Z,12.97
2023-04-24T16:44:14.018Z,12.94
2023-04-24T16:46:41.265Z,12.93
2023-04-24T16:49:08.467Z,12.86
2023-04-24T16:51:35.793Z,12.87
2023-04-24T16:54:03.155Z,12.94
2023-04-24T16:56:30.284Z,12.91
2023-04-24T16:58:57.414Z,12.97
2023-04-24T17:01:26.051Z,13.01
2023-04-24T17:03:53.450Z,13.01
2023-04-24T17:06:20.725Z,13.02
2023-04-24T17:08:47.995Z,13.12
2023-04-24T17:11:15.357Z,13.08
2023-04-24T17:13:42.498Z,13.16
2023-04-24T17:16:09.675Z,13.17
2023-04-24T17:18:36.822Z,13.20
2023-04-24T17:21:04.185Z,13.26
2023-04-24T17:23:31.460Z,13.27
2023-04-24T17:25:58.727Z,13.27
2023-04-24T17:28:29.428Z,13.33
2023-04-24T17:31:00.321Z,13.26
2023-04-24T17:33:28.826Z,12.75
2023-04-24T17:36:02.005Z,13.34
2023-04-24T17:38:30.100Z,13.39
2023-04-24T17:41:00.453Z,13.34
2023-04-24T17:43:27.373Z,13.41
2023-04-24T17:45:59.472Z,13.36
2023-04-24T17:48:26.907Z,13.39
2023-04-24T17:50:56.411Z,13.31
2023-04-24T17:53:23.139Z,13.11
2023-04-24T17:55:50.026Z,12.89
2023-04-24T17:58:19.384Z,12.70
2023-04-24T18:00:46.488Z,12.70
2023-04-24T18:03:13.277Z,12.54
2023-04-24T18:05:40.247Z,12.47
2023-04-24T18:08:07.770Z,12.32
2023-04-24T18:10:37.475Z,12.30
2023-04-24T18:13:05.478Z,12.22
2023-04-24T18:15:32.922Z,12.29
2023-04-24T18:17:59.956Z,12.25
2023-04-24T18:20:27.389Z,12.11
2023-04-24T18:22:54.603Z,11.94
2023-04-24T18:25:26.753Z,11.71
2023-04-24T18:27:59.379Z,11.38
2023-04-24T18:30:32.648Z,11.18
2023-04-24T18:33:00.082Z,11.01
2023-04-24T18:35:29.537Z,11.06
2023-04-24T18:37:56.401Z,11.03
2023-04-24T18:40:23.134Z,11.04
2023-04-24T18:42:50.512Z,11.02
2023-04-24T18:45:17.353Z,11.06
2023-04-24T18:47:46.639Z,11.18
2023-04-24T18:50:14.886Z,11.20
2023-04-24T18:52:47.946Z,11.16
2023-04-24T18:55:14.978Z,11.19
2023-04-24T18:57:41.949Z,11.10
2023-04-24T19:00:09.387Z,11.23
2023-04-24T19:02:36.861Z,11.24
2023-04-24T19:05:04.239Z,11.24
2023-04-24T19:07:31.181Z,11.33
2023-04-24T19:09:58.148Z,11.34
2023-04-24T19:12:25.951Z,11.39
2023-04-24T19:14:58.410Z,11.47
2023-04-24T19:17:28.272Z,11.44
2023-04-24T19:19:55.711Z,11.39
2023-04-24T19:22:22.533Z,11.19
2023-04-24T19:24:49.880Z,11.44
2023-04-24T19:27:23.498Z,11.52
2023-04-24T19:29:52.278Z,11.55
2023-04-24T19:32:19.158Z,11.30
2023-04-24T19:34:46.126Z,11.64
2023-04-24T19:37:13.679Z,11.56
2023-04-24T19:39:41.719Z,11.70
2023-04-24T19:42:08.686Z,11.47
2023-04-24T19:44:35.787Z,11.65
2023-04-24T19:47:05.213Z,11.66
2023-04-24T19:49:32.176Z,11.79
2023-04-24T19:52:01.687Z,11.54
2023-04-24T19:54:28.961Z,11.38
2023-04-24T19:56:56.196Z,11.59
2023-04-24T19:59:23.340Z,11.58
2023-04-24T20:01:51.713Z,11.19
2023-04-24T20:04:21.949Z,11.14
2023-04-24T20:06:49.997Z,11.19
2023-04-24T20:09:17.023Z,10.86
2023-04-24T20:11:45.126Z,10.67
2023-04-24T20:14:12.185Z,10.96
2023-04-24T20:16:39.352Z,10.81
2023-04-24T20:19:06.267Z,10.45
2023-04-24T20:21:33.238Z,10.55
2023-04-24T20:24:00.306Z,10.46
2023-04-24T20:26:27.170Z,10.67
2023-04-24T20:28:53.944Z,10.74
2023-04-24T20:31:20.831Z,10.72
2023-04-24T20:33:47.569Z,10.65
2023-04-24T20:36:14.259Z,10.43
2023-04-24T20:38:41.109Z,10.60
2023-04-24T20:41:08.976Z,10.61
2023-04-24T20:43:36.088Z,10.43
2023-04-24T20:46:02.961Z,10.46
2023-04-24T20:48:29.845Z,10.78
2023-04-24T20:50:56.606Z,10.62
2023-04-24T20:53:23.485Z,10.32
2023-04-24T20:55:50.504Z,10.84
2023-04-24T20:58:18.671Z,10.86
2023-04-24T21:00:45.482Z,11.06
2023-04-24T21:03:12.719Z,10.75
2023-04-24T21:05:39.392Z,10.83
2023-04-24T21:08:06.432Z,10.90
2023-04-24T21:10:33.182Z,10.95
2023-04-24T21:12:59.844Z,10.92
2023-04-24T21:15:26.566Z,10.88
2023-04-24T21:17:53.485Z,11.03
2023-04-24T21:20:20.338Z,10.97
2023-04-24T21:22:47.048Z,11.08
2023-04-24T21:25:13.760Z,11.04
2023-04-24T21:27:41.370Z,10.80
2023-04-24T21:30:08.562Z,10.85
2023-04-24T21:32:35.245Z,10.75
2023-04-24T21:35:02.029Z,10.25
2023-04-24T21:37:28.762Z,10.26
2023-04-24T21:39:55.451Z,10.57
2023-04-24T21:42:22.283Z,10.68
2023-04-24T21:44:49.055Z,10.57
2023-04-24T21:47:15.894Z,10.34
2023-04-24T21:49:42.992Z,10.14
2023-04-24T21:52:09.610Z,10.48
2023-04-24T21:54:36.192Z,10.56
2023-04-24T21:57:03.090Z,10.56
2023-04-24T21:59:30.283Z,10.59
2023-04-24T22:01:57.017Z,10.37
2023-04-24T22:04:23.897Z,10.34
2023-04-24T22:06:53.340Z,10.39
2023-04-24T22:09:19.991Z,10.42
2023-04-24T22:11:46.667Z,10.35
2023-04-24T22:14:13.329Z,10.34
2023-04-24T22:16:41.761Z,10.21
2023-04-24T22:19:08.789Z,10.12
2023-04-24T22:21:35.666Z,10.01
2023-04-24T22:24:02.498Z,10.08
2023-04-24T22:26:29.097Z,10.14
2023-04-24T22:28:55.731Z,9.95
2023-04-24T22:31:23.426Z,10.08
2023-04-24T22:33:51.745Z,10.05
2023-04-24T22:36:18.621Z,10.04
2023-04-24T22:38:45.577Z,10.17
2023-04-24T22:41:12.502Z,10.28
2023-04-24T22:43:39.554Z,10.38
2023-04-24T22:46:06.271Z,10.36
2023-04-24T22:48:34.699Z,10.45
2023-04-24T22:51:01.680Z,10.42
2023-04-24T22:53:29.052Z,10.41
2023-04-24T22:55:58.924Z,10.38
2023-04-24T22:58:26.093Z,10.13
2023-04-24T23:00:52.868Z,10.20
2023-04-24T23:03:19.978Z,10.21
2023-04-24T23:05:47.013Z,10.21
2023-04-24T23:08:13.679Z,10.25
2023-04-24T23:10:40.566Z,10.42
2023-04-24T23:13:07.391Z,10.46
2023-04-24T23:15:34.807Z,10.54
2023-04-24T23:18:01.832Z,10.57
2023-04-24T23:20:28.913Z,10.67
2023-04-24T23:22:55.618Z,10.58
2023-04-24T23:25:22.235Z,10.42
2023-04-24T23:27:49.295Z,10.20
2023-04-24T23:30:16.513Z,10.27
2023-04-24T23:32:44.452Z,10.26
2023-04-24T23:35:11.753Z,10.36
2023-04-24T23:37:38.817Z,10.38
2023-04-24T23:40:12.389Z,10.37
2023-04-24T23:42:39.097Z,10.18
2023-04-24T23:45:06.218Z,10.24
2023-04-24T23:47:33.003Z,10.13
2023-04-24T23:49:59.730Z,10.05
2023-04-24T23:52:26.414Z,9.99
2023-04-24T23:54:53.216Z,9.91
2023-04-24T23:57:20.029Z,9.82
2023-04-24T23:59:46.749Z,9.82
